createdAt,value
2017-11-12T00:01:40.445Z,3.20
2017-11-12T00:04:07.994Z,3.20
2017-11-12T00:06:35.543Z,3.20
2017-11-12T00:09:03.205Z,3.20
2017-11-12T00:11:31.521Z,3.20
2017-11-12T00:13:59.068Z,3.20
2017-11-12T00:16:27.419Z,3.10
2017-11-12T00:18:54.971Z,3.10
2017-11-12T00:21:22.517Z,3.20
2017-11-12T00:23:50.120Z,3.10
2017-11-12T00:26:17.664Z,3.20
2017-11-12T00:28:45.209Z,3.20
2017-11-12T00:31:13.569Z,3.20
2017-11-12T00:33:41.121Z,3.20
2017-11-12T00:36:08.677Z,3.20
2017-11-12T00:38:36.277Z,3.20
2017-11-12T00:41:03.826Z,3.20
2017-11-12T00:43:31.374Z,3.20
2017-11-12T00:45:59.106Z,3.20
2017-11-12T00:48:26.662Z,3.10
2017-11-12T00:50:54.205Z,3.10
2017-11-12T00:53:21.799Z,3.10
2017-11-12T00:55:49.357Z,3.10
2017-11-12T00:58:16.903Z,3.10
2017-11-12T01:00:44.492Z,3.10
2017-11-12T01:03:12.038Z,3.10
2017-11-12T01:05:39.582Z,3.00
2017-11-12T01:08:08.845Z,3.00
2017-11-12T01:10:36.389Z,3.00
2017-11-12T01:13:03.936Z,3.00
2017-11-12T01:15:32.501Z,3.00
2017-11-12T01:18:00.049Z,2.90
2017-11-12T01:20:27.602Z,3.00
2017-11-12T01:22:55.220Z,3.00
2017-11-12T01:25:22.764Z,3.10
2017-11-12T01:27:50.307Z,3.10
2017-11-12T01:30:18.665Z,3.10
2017-11-12T01:32:46.210Z,3.10
2017-11-12T01:35:13.764Z,3.10
2017-11-12T01:37:41.457Z,3.10
2017-11-12T01:40:09.001Z,3.20
2017-11-12T01:42:36.550Z,3.10
2017-11-12T01:45:04.904Z,3.10
2017-11-12T01:47:32.449Z,3.10
2017-11-12T01:50:00.001Z,3.10
2017-11-12T01:52:27.817Z,3.10
2017-11-12T01:54:55.373Z,3.10
2017-11-12T01:57:22.926Z,3.10
2017-11-12T01:59:50.625Z,3.10
2017-11-12T02:02:18.177Z,3.10
2017-11-12T02:04:45.741Z,3.10
2017-11-12T02:07:13.483Z,3.10
2017-11-12T02:09:41.792Z,3.20
2017-11-12T02:12:09.336Z,3.10
2017-11-12T02:14:36.936Z,3.10
2017-11-12T02:17:04.481Z,3.10
2017-11-12T02:19:32.304Z,3.20
2017-11-12T02:21:59.898Z,3.20
2017-11-12T02:24:27.444Z,3.10
2017-11-12T02:26:54.992Z,3.10
2017-11-12T02:29:22.585Z,3.10
2017-11-12T02:31:50.133Z,3.10
2017-11-12T02:34:18.444Z,3.10
2017-11-12T02:36:46.045Z,3.10
2017-11-12T02:39:13.601Z,3.10
2017-11-12T02:41:41.153Z,3.10
2017-11-12T02:44:08.764Z,3.10
2017-11-12T02:46:36.305Z,3.10
2017-11-12T02:49:03.861Z,3.20
2017-11-12T02:51:31.673Z,3.20
2017-11-12T02:53:59.221Z,3.30
2017-11-12T02:56:26.773Z,3.30
2017-11-12T02:58:54.369Z,3.30
2017-11-12T03:01:21.917Z,3.20
2017-11-12T03:03:50.284Z,3.20
2017-11-12T03:06:18.020Z,3.20
2017-11-12T03:08:45.569Z,3.10
2017-11-12T03:11:13.112Z,3.10
2017-11-12T03:13:41.662Z,3.10
2017-11-12T03:16:09.232Z,3.10
2017-11-12T03:18:36.771Z,3.10
2017-11-12T03:21:04.365Z,3.10
2017-11-12T03:23:31.921Z,3.10
2017-11-12T03:25:59.483Z,3.10
2017-11-12T03:28:27.077Z,3.10
2017-11-12T03:30:55.499Z,3.10
2017-11-12T03:33:23.056Z,3.20
2017-11-12T03:35:50.745Z,3.20
2017-11-12T03:38:18.289Z,3.20
2017-11-12T03:40:45.837Z,3.20
2017-11-12T03:43:13.425Z,3.20
2017-11-12T03:45:40.969Z,3.10
2017-11-12T03:48:08.522Z,3.10
2017-11-12T03:50:36.877Z,3.00
2017-11-12T03:53:04.425Z,3.00
2017-11-12T03:55:31.973Z,3.00
2017-11-12T03:57:59.581Z,3.00
2017-11-12T04:00:27.129Z,2.90
2017-11-12T04:02:54.680Z,3.00
2017-11-12T04:05:22.281Z,3.00
2017-11-12T04:07:49.828Z,2.90
2017-11-12T04:10:17.369Z,2.90
2017-11-12T04:12:45.045Z,2.90
2017-11-12T04:15:12.589Z,2.90
2017-11-12T04:17:40.132Z,2.90
2017-11-12T04:20:07.724Z,2.90
2017-11-12T04:22:35.268Z,2.80
2017-11-12T04:25:03.289Z,2.90
2017-11-12T04:27:30.889Z,2.80
2017-11-12T04:29:59.205Z,2.80
2017-11-12T04:32:26.755Z,2.80
2017-11-12T04:34:55.113Z,2.70
2017-11-12T04:37:22.657Z,2.70
2017-11-12T04:39:50.201Z,2.80
2017-11-12T04:42:17.804Z,2.80
2017-11-12T04:44:45.353Z,2.70
2017-11-12T04:47:12.905Z,2.70
2017-11-12T04:49:41.445Z,2.80
2017-11-12T04:52:08.996Z,2.80
2017-11-12T04:54:36.554Z,2.80
2017-11-12T04:57:04.148Z,2.90
2017-11-12T04:59:31.690Z,2.90
2017-11-12T05:01:59.237Z,2.90
2017-11-12T05:04:26.829Z,2.80
2017-11-12T05:06:54.376Z,2.80
2017-11-12T05:09:21.914Z,2.70
2017-11-12T05:11:49.520Z,2.70
2017-11-12T05:14:17.077Z,2.70
2017-11-12T05:16:44.628Z,2.70
2017-11-12T05:19:12.216Z,2.60
2017-11-12T05:21:39.760Z,2.60
2017-11-12T05:24:07.308Z,2.50
2017-11-12T05:26:34.913Z,2.60
2017-11-12T05:29:02.460Z,2.60
2017-11-12T05:31:30.021Z,2.60
2017-11-12T05:33:57.621Z,2.60
2017-11-12T05:36:25.173Z,2.60
2017-11-12T05:38:53.616Z,2.60
2017-11-12T05:41:21.373Z,2.70
2017-11-12T05:43:48.916Z,2.60
2017-11-12T05:46:16.461Z,2.60
2017-11-12T05:48:44.184Z,2.70
2017-11-12T05:51:11.729Z,2.70
2017-11-12T05:53:39.294Z,2.70
2017-11-12T05:56:06.893Z,2.70
2017-11-12T05:58:34.442Z,2.70
2017-11-12T06:01:01.994Z,2.70
2017-11-12T06:03:30.516Z,2.60
2017-11-12T06:05:58.064Z,2.60
2017-11-12T06:08:25.608Z,2.60
2017-11-12T06:10:53.210Z,2.60
2017-11-12T06:13:20.764Z,2.70
2017-11-12T06:15:49.085Z,2.60
2017-11-12T06:18:16.776Z,2.60
2017-11-12T06:20:44.321Z,2.70
2017-11-12T06:23:11.882Z,2.70
2017-11-12T06:25:39.617Z,2.70
2017-11-12T06:28:07.164Z,2.70
2017-11-12T06:30:34.709Z,2.70
2017-11-12T06:33:02.421Z,2.70
2017-11-12T06:35:30.021Z,2.70
2017-11-12T06:37:58.333Z,2.80
2017-11-12T06:40:26.580Z,2.80
2017-11-12T06:42:54.120Z,2.80
2017-11-12T06:45:21.680Z,2.80
2017-11-12T06:47:49.280Z,2.90
2017-11-12T06:50:16.826Z,2.90
2017-11-12T06:52:44.377Z,2.90
2017-11-12T06:55:11.973Z,2.90
2017-11-12T06:57:39.533Z,3.00
2017-11-12T07:00:07.102Z,3.00
2017-11-12T07:02:34.912Z,3.00
2017-11-12T07:05:03.202Z,3.00
2017-11-12T07:07:30.770Z,3.00
2017-11-12T07:09:58.367Z,3.10
2017-11-12T07:12:25.916Z,3.10
2017-11-12T07:14:53.462Z,3.10
2017-11-12T07:17:21.088Z,3.20
2017-11-12T07:19:48.636Z,3.20
2017-11-12T07:22:16.184Z,3.20
2017-11-12T07:24:43.911Z,3.30
2017-11-12T07:27:12.229Z,3.30
2017-11-12T07:29:39.779Z,3.30
2017-11-12T07:32:08.328Z,3.40
2017-11-12T07:34:35.878Z,3.40
2017-11-12T07:37:04.263Z,3.50
2017-11-12T07:39:31.864Z,3.50
2017-11-12T07:41:59.412Z,3.60
2017-11-12T07:44:26.969Z,3.70
2017-11-12T07:46:54.565Z,3.90
2017-11-12T07:49:22.119Z,4.00
2017-11-12T07:51:50.276Z,4.10
2017-11-12T07:54:18.828Z,4.40
2017-11-12T07:56:46.433Z,4.30
2017-11-12T07:59:13.980Z,4.40
2017-11-12T08:01:41.757Z,4.40
2017-11-12T08:04:09.347Z,4.40
2017-11-12T08:06:37.686Z,4.40
2017-11-12T08:09:05.273Z,4.40
2017-11-12T08:11:33.372Z,4.50
2017-11-12T08:14:00.994Z,4.60
2017-11-12T08:16:28.708Z,4.60
2017-11-12T08:18:56.249Z,4.70
2017-11-12T08:21:23.800Z,4.70
2017-11-12T08:23:52.156Z,4.70
2017-11-12T08:26:19.732Z,4.70
2017-11-12T08:28:48.048Z,4.80
2017-11-12T08:31:16.408Z,4.80
2017-11-12T08:33:43.965Z,4.80
2017-11-12T08:36:11.521Z,4.80
2017-11-12T08:38:39.125Z,4.80
2017-11-12T08:41:06.690Z,4.90
2017-11-12T08:43:34.238Z,4.90
2017-11-12T08:46:01.840Z,4.90
2017-11-12T08:48:30.905Z,5.00
2017-11-12T08:50:58.493Z,5.00
2017-11-12T08:53:26.299Z,5.10
2017-11-12T08:55:53.844Z,5.10
2017-11-12T08:58:22.163Z,5.30
2017-11-12T09:00:49.907Z,5.30
2017-11-12T09:03:19.661Z,5.40
2017-11-12T09:05:48.809Z,5.60
2017-11-12T09:08:16.399Z,5.60
2017-11-12T09:10:54.853Z,5.60
2017-11-12T09:13:23.549Z,5.70
2017-11-12T09:15:59.313Z,5.70
2017-11-12T09:18:30.292Z,5.80
2017-11-12T09:21:01.144Z,5.90
2017-11-12T09:23:30.386Z,6.00
2017-11-12T09:25:59.817Z,6.00
2017-11-12T09:28:28.850Z,6.00
2017-11-12T09:30:58.363Z,6.00
2017-11-12T09:33:30.158Z,5.90
2017-11-12T09:36:01.662Z,5.90
2017-11-12T09:38:32.613Z,5.90
2017-11-12T09:41:01.544Z,5.90
2017-11-12T09:43:33.185Z,5.90
2017-11-12T09:46:03.565Z,5.90
2017-11-12T09:48:37.914Z,5.90
2017-11-12T09:51:10.525Z,5.90
2017-11-12T09:53:43.851Z,5.90
2017-11-12T09:56:14.224Z,5.90
2017-11-12T09:58:45.036Z,6.00
2017-11-12T10:01:14.179Z,6.00
2017-11-12T10:03:42.461Z,6.00
2017-11-12T10:06:10.655Z,6.00
2017-11-12T10:08:38.983Z,5.90
2017-11-12T10:11:07.378Z,5.90
2017-11-12T10:13:36.813Z,5.90
2017-11-12T10:16:04.965Z,5.80
2017-11-12T10:18:33.766Z,5.90
2017-11-12T10:21:09.163Z,5.90
2017-11-12T10:23:55.194Z,6.00
2017-11-12T10:26:28.447Z,6.10
2017-11-12T10:29:03.743Z,6.10
2017-11-12T10:31:36.344Z,6.20
2017-11-12T10:34:05.079Z,6.30
2017-11-12T10:36:33.375Z,6.30
2017-11-12T10:39:02.013Z,6.30
2017-11-12T10:41:31.099Z,6.50
2017-11-12T10:44:06.917Z,6.40
2017-11-12T10:46:35.285Z,6.50
2017-11-12T10:49:05.048Z,6.70
2017-11-12T10:51:32.883Z,6.60
2017-11-12T10:54:02.326Z,6.70
2017-11-12T10:56:30.959Z,6.90
2017-11-12T10:59:00.390Z,7.00
2017-11-12T11:01:28.986Z,7.00
2017-11-12T11:03:59.749Z,7.00
2017-11-12T11:06:28.742Z,7.00
2017-11-12T11:08:59.453Z,7.00
2017-11-12T11:11:29.234Z,7.00
2017-11-12T11:14:03.635Z,7.00
2017-11-12T11:16:33.098Z,7.00
2017-11-12T11:19:02.644Z,6.80
2017-11-12T11:21:33.668Z,6.80
2017-11-12T11:24:01.958Z,6.80
2017-11-12T11:26:30.930Z,6.80
2017-11-12T11:28:58.782Z,6.90
2017-11-12T11:31:41.756Z,7.10
2017-11-12T11:34:19.859Z,7.10
2017-11-12T11:39:29.858Z,7.20
2017-11-12T11:41:58.699Z,7.30
2017-11-12T11:44:29.430Z,7.30
2017-11-12T11:47:01.033Z,7.60
2017-11-12T11:49:31.750Z,7.80
2017-11-12T11:52:01.459Z,7.70
2017-11-12T11:54:30.124Z,8.00
2017-11-12T11:56:59.175Z,8.30
2017-11-12T11:59:26.788Z,8.30
2017-11-12T12:01:54.372Z,8.40
2017-11-12T12:04:22.841Z,8.40
2017-11-12T12:06:54.518Z,8.40
2017-11-12T12:09:22.880Z,8.30
2017-11-12T12:11:50.586Z,8.20
2017-11-12T12:14:18.216Z,8.10
2017-11-12T12:16:45.761Z,8.00
2017-11-12T12:19:14.180Z,8.00
2017-11-12T12:21:41.789Z,7.90
2017-11-12T12:24:09.344Z,7.90
2017-11-12T12:26:36.915Z,8.00
2017-11-12T12:29:04.545Z,8.00
2017-11-12T12:31:35.712Z,8.10
2017-11-12T12:34:04.317Z,8.20
2017-11-12T12:36:34.500Z,8.10
2017-11-12T12:39:02.141Z,8.10
2017-11-12T12:41:29.902Z,8.10
2017-11-12T12:44:00.598Z,8.10
2017-11-12T12:46:39.540Z,8.00
2017-11-12T12:49:09.437Z,7.80
2017-11-12T12:51:39.374Z,7.70
2017-11-12T12:54:10.540Z,7.70
2017-11-12T12:56:40.146Z,7.60
2017-11-12T12:59:12.307Z,7.60
2017-11-12T13:01:45.078Z,7.60
2017-11-12T13:04:17.944Z,7.50
2017-11-12T13:06:48.792Z,7.50
2017-11-12T13:09:19.974Z,7.50
2017-11-12T13:11:51.279Z,7.50
2017-11-12T13:14:23.814Z,7.50
2017-11-12T13:16:54.593Z,7.50
2017-11-12T13:19:25.381Z,7.40
2017-11-12T13:21:57.181Z,7.30
2017-11-12T13:24:28.358Z,7.20
2017-11-12T13:27:01.534Z,7.20
2017-11-12T13:29:31.760Z,7.20
2017-11-12T13:32:01.102Z,7.10
2017-11-12T13:34:31.262Z,7.10
2017-11-12T13:37:03.635Z,7.10
2017-11-12T13:39:31.385Z,7.10
2017-11-12T13:41:59.705Z,7.20
2017-11-12T13:44:27.306Z,7.20
2017-11-12T13:46:59.125Z,7.20
2017-11-12T13:49:33.205Z,7.20
2017-11-12T13:52:03.484Z,7.20
2017-11-12T13:54:39.341Z,7.20
2017-11-12T13:57:09.309Z,7.20
2017-11-12T13:59:36.997Z,7.20
2017-11-12T14:02:04.548Z,7.20
2017-11-12T14:04:32.094Z,7.10
2017-11-12T14:06:59.705Z,7.10
2017-11-12T14:09:27.253Z,7.10
2017-11-12T14:11:54.797Z,7.60
2017-11-12T14:14:23.561Z,7.10
2017-11-12T14:16:51.119Z,7.10
2017-11-12T14:19:18.709Z,7.10
2017-11-12T14:21:46.325Z,7.10
2017-11-12T14:24:13.877Z,7.10
2017-11-12T14:26:42.224Z,7.00
2017-11-12T14:29:09.833Z,7.00
2017-11-12T14:31:38.161Z,7.00
2017-11-12T14:34:05.712Z,7.00
2017-11-12T14:36:34.252Z,7.00
2017-11-12T14:39:01.797Z,7.00
2017-11-12T14:41:29.356Z,7.00
2017-11-12T14:43:56.949Z,6.90
2017-11-12T14:46:24.492Z,6.90
2017-11-12T14:48:52.816Z,7.10
2017-11-12T14:51:20.614Z,7.00
2017-11-12T14:53:48.156Z,7.00
2017-11-12T14:56:15.709Z,6.90
2017-11-12T14:58:43.320Z,6.90
2017-11-12T15:01:10.877Z,6.80
2017-11-12T15:03:42.150Z,6.80
2017-11-12T15:06:13.779Z,6.70
2017-11-12T15:08:46.420Z,6.80
2017-11-12T15:13:51.073Z,7.30
2017-11-12T15:16:22.854Z,7.40
2017-11-12T15:18:57.070Z,7.40
2017-11-12T15:21:27.691Z,7.20
2017-11-12T15:24:03.976Z,7.10
2017-11-12T15:26:37.084Z,7.00
2017-11-12T15:29:05.967Z,6.90
2017-11-12T15:31:38.118Z,6.80
2017-11-12T15:34:10.328Z,6.70
2017-11-12T15:36:40.159Z,6.80
2017-11-12T15:39:12.730Z,6.70
2017-11-12T15:41:45.825Z,6.60
2017-11-12T15:44:16.108Z,6.60
2017-11-12T15:46:47.302Z,6.60
2017-11-12T15:49:16.899Z,6.60
2017-11-12T15:51:46.475Z,6.60
2017-11-12T15:54:16.356Z,6.60
2017-11-12T15:56:47.322Z,6.50
2017-11-12T15:59:16.447Z,6.50
2017-11-12T16:01:46.091Z,6.50
2017-11-12T16:04:14.907Z,6.50
2017-11-12T16:06:43.976Z,6.50
2017-11-12T16:09:13.648Z,6.50
2017-11-12T16:11:42.048Z,6.40
2017-11-12T16:14:10.404Z,6.40
2017-11-12T16:16:39.379Z,6.40
2017-11-12T16:19:08.031Z,6.40
2017-11-12T16:21:36.725Z,6.40
2017-11-12T16:24:05.474Z,6.40
2017-11-12T16:26:34.808Z,6.40
2017-11-12T16:29:03.746Z,6.40
2017-11-12T16:31:31.406Z,6.40
2017-11-12T16:33:59.013Z,6.40
2017-11-12T16:36:27.440Z,6.30
2017-11-12T16:38:55.009Z,6.30
2017-11-12T16:41:23.128Z,6.30
2017-11-12T16:43:50.681Z,6.50
2017-11-12T16:46:18.233Z,6.70
2017-11-12T16:48:46.135Z,6.90
2017-11-12T16:51:15.863Z,6.80
2017-11-12T16:53:44.473Z,6.70
2017-11-12T16:56:12.171Z,6.60
2017-11-12T16:58:43.611Z,6.50
2017-11-12T17:01:13.506Z,6.50
2017-11-12T17:03:42.730Z,6.40
2017-11-12T17:06:15.355Z,6.70
2017-11-12T17:08:44.288Z,6.90
2017-11-12T17:11:13.742Z,7.30
2017-11-12T17:13:42.363Z,6.70
2017-11-12T17:16:12.402Z,6.60
2017-11-12T17:18:42.509Z,6.50
2017-11-12T17:21:12.487Z,6.50
2017-11-12T17:23:42.256Z,6.30
2017-11-12T17:26:11.537Z,6.30
2017-11-12T17:28:39.241Z,6.30
2017-11-12T17:31:06.791Z,6.20
2017-11-12T17:33:34.342Z,6.20
2017-11-12T17:36:02.288Z,6.20
2017-11-12T17:38:30.612Z,6.20
2017-11-12T17:40:58.498Z,6.20
2017-11-12T17:43:26.538Z,6.20
2017-11-12T17:45:54.382Z,6.20
2017-11-12T17:48:22.279Z,6.20
2017-11-12T17:50:50.296Z,6.20
2017-11-12T17:53:18.396Z,6.20
2017-11-12T17:55:46.768Z,6.20
2017-11-12T17:58:15.333Z,6.20
2017-11-12T18:00:43.574Z,6.20
2017-11-12T18:03:12.492Z,6.20
2017-11-12T18:05:40.457Z,6.20
2017-11-12T18:08:09.275Z,6.20
2017-11-12T18:10:38.016Z,6.20
2017-11-12T18:13:05.938Z,6.20
2017-11-12T18:15:33.803Z,6.20
2017-11-12T18:18:02.360Z,6.20
2017-11-12T18:20:31.551Z,6.20
2017-11-12T18:23:00.416Z,6.20
2017-11-12T18:25:28.356Z,6.20
2017-11-12T18:27:56.588Z,6.20
2017-11-12T18:30:25.028Z,6.20
2017-11-12T18:32:53.060Z,6.10
2017-11-12T18:35:21.121Z,6.10
2017-11-12T18:37:49.967Z,6.00
2017-11-12T18:40:17.606Z,6.00
2017-11-12T18:42:45.317Z,5.90
2017-11-12T18:45:12.870Z,5.90
2017-11-12T18:47:40.445Z,5.90
2017-11-12T18:50:08.245Z,5.80
2017-11-12T18:52:35.797Z,5.80
2017-11-12T18:55:04.245Z,5.70
2017-11-12T18:57:38.292Z,5.80
2017-11-12T19:00:07.433Z,5.80
2017-11-12T19:02:40.850Z,5.80
2017-11-12T19:05:14.131Z,5.80
2017-11-12T19:07:59.753Z,5.70
2017-11-12T19:10:27.333Z,5.70
2017-11-12T19:12:54.914Z,5.70
2017-11-12T19:15:23.299Z,5.60
2017-11-12T19:17:50.853Z,5.60
2017-11-12T19:20:18.900Z,5.60
2017-11-12T19:22:58.451Z,5.60
2017-11-12T19:25:28.544Z,5.50
2017-11-12T19:28:00.362Z,5.50
2017-11-12T19:30:28.242Z,5.50
2017-11-12T19:32:55.945Z,5.50
2017-11-12T19:35:23.898Z,5.50
2017-11-12T19:37:51.677Z,5.50
2017-11-12T19:40:19.551Z,5.40
2017-11-12T19:42:47.737Z,5.40
2017-11-12T19:45:15.616Z,5.40
2017-11-12T19:47:43.201Z,5.40
2017-11-12T19:50:10.807Z,5.50
2017-11-12T19:52:39.137Z,5.50
2017-11-12T19:55:09.568Z,5.50
2017-11-12T19:57:40.509Z,5.50
2017-11-12T20:00:10.641Z,5.60
2017-11-12T20:02:42.766Z,5.60
2017-11-12T20:05:12.092Z,5.70
2017-11-12T20:07:39.770Z,6.00
2017-11-12T20:10:07.513Z,6.30
2017-11-12T20:12:35.089Z,6.60
2017-11-12T20:15:02.684Z,6.80
2017-11-12T20:17:30.293Z,6.90
2017-11-12T20:19:58.630Z,6.90
2017-11-12T20:22:26.257Z,6.90
2017-11-12T20:24:54.643Z,6.80
2017-11-12T20:27:22.965Z,6.90
2017-11-12T20:29:50.525Z,6.90
2017-11-12T20:32:18.246Z,6.90
2017-11-12T20:34:45.797Z,6.80
2017-11-12T20:37:13.457Z,6.80
2017-11-12T20:39:41.068Z,6.80
2017-11-12T20:42:08.811Z,6.70
2017-11-12T20:44:36.786Z,6.60
2017-11-12T20:47:04.875Z,6.40
2017-11-12T20:49:32.848Z,6.30
2017-11-12T20:52:00.828Z,6.20
2017-11-12T20:54:29.016Z,6.10
2017-11-12T20:56:56.910Z,6.00
2017-11-12T20:59:24.787Z,5.90
2017-11-12T21:01:52.771Z,5.80
2017-11-12T21:04:21.459Z,5.70
2017-11-12T21:06:51.212Z,5.70
2017-11-12T21:09:20.076Z,5.60
2017-11-12T21:11:47.949Z,5.60
2017-11-12T21:14:15.832Z,5.50
2017-11-12T21:16:43.883Z,5.50
2017-11-12T21:19:12.416Z,5.40
2017-11-12T21:21:44.180Z,5.40
2017-11-12T21:24:12.090Z,5.40
2017-11-12T21:26:41.653Z,5.40
2017-11-12T21:29:10.479Z,5.40
2017-11-12T21:31:38.970Z,5.40
2017-11-12T21:37:24.452Z,5.50
2017-11-12T21:39:52.200Z,5.50
2017-11-12T21:42:19.752Z,5.50
2017-11-12T21:44:47.301Z,5.60
2017-11-12T21:47:14.911Z,5.60
2017-11-12T21:49:42.458Z,5.60
2017-11-12T21:52:10.010Z,5.60
2017-11-12T21:54:37.605Z,5.60
2017-11-12T21:57:05.173Z,5.60
2017-11-12T21:59:32.724Z,5.50
2017-11-12T22:02:00.437Z,5.50
2017-11-12T22:04:27.988Z,5.50
2017-11-12T22:06:55.541Z,5.50
2017-11-12T22:09:23.128Z,5.50
2017-11-12T22:11:50.679Z,5.50
2017-11-12T22:14:19.000Z,5.50
2017-11-12T22:16:46.613Z,5.50
2017-11-12T22:19:14.940Z,5.40
2017-11-12T22:21:42.489Z,5.40
2017-11-12T22:24:10.236Z,5.40
2017-11-12T22:26:37.788Z,5.40
2017-11-12T22:29:05.340Z,5.40
2017-11-12T22:31:32.939Z,5.30
2017-11-12T22:34:00.489Z,5.30
2017-11-12T22:36:28.035Z,5.30
2017-11-12T22:38:55.752Z,5.20
2017-11-12T22:41:23.300Z,5.20
2017-11-12T22:43:50.879Z,5.20
2017-11-12T22:46:18.480Z,5.10
2017-11-12T22:48:46.024Z,5.10
2017-11-12T22:51:13.578Z,5.10
2017-11-12T22:53:41.282Z,5.10
2017-11-12T22:56:08.841Z,5.10
2017-11-12T22:58:36.401Z,5.10
2017-11-12T23:01:03.996Z,5.00
2017-11-12T23:03:31.549Z,5.00
2017-11-12T23:05:59.100Z,5.00
2017-11-12T23:08:26.712Z,4.90
2017-11-12T23:10:55.140Z,5.00
2017-11-12T23:13:23.456Z,5.00
2017-11-12T23:15:51.052Z,4.90
2017-11-12T23:18:18.609Z,4.90
2017-11-12T23:20:46.168Z,4.90
2017-11-12T23:23:13.764Z,4.90
2017-11-12T23:25:41.788Z,4.90
2017-11-12T23:28:10.844Z,4.90
2017-11-12T23:30:38.651Z,4.90
2017-11-12T23:33:06.214Z,4.90
2017-11-12T23:35:33.763Z,4.90
2017-11-12T23:38:01.560Z,4.90
2017-11-12T23:40:29.108Z,4.80
2017-11-12T23:42:56.656Z,4.90
2017-11-12T23:45:25.015Z,4.90
2017-11-12T23:47:52.574Z,4.90
2017-11-12T23:50:20.125Z,4.80
2017-11-12T23:52:47.733Z,4.80
2017-11-12T23:55:15.284Z,4.80
2017-11-12T23:57:42.837Z,4.90
